createdAt,value
2023-04-02T00:00:37.459Z,1.20
2023-04-02T00:05:54.977Z,1.10
2023-04-02T00:11:02.441Z,1.13
2023-04-02T00:16:12.495Z,0.97
2023-04-02T00:21:30.571Z,1.23
2023-04-02T00:26:44.584Z,1.03
2023-04-02T00:31:53.220Z,0.70
2023-04-02T00:36:55.804Z,0.80
2023-04-02T00:42:05.907Z,0.87
2023-04-02T00:47:48.203Z,0.80
2023-04-02T00:52:52.884Z,0.70
2023-04-02T00:57:59.993Z,1.30
2023-04-02T01:03:37.246Z,1.00
2023-04-02T01:08:58.518Z,1.13
2023-04-02T01:14:12.944Z,1.30
2023-04-02T01:19:54.395Z,1.20
2023-04-02T01:24:58.670Z,1.10
2023-04-02T01:30:03.607Z,1.00
2023-04-02T01:35:07.052Z,1.47
2023-04-02T01:40:47.072Z,1.30
2023-04-02T01:45:50.320Z,1.50
2023-04-02T01:50:55.374Z,1.20
2023-04-02T01:56:01.719Z,1.50
2023-04-02T02:01:17.228Z,1.33
2023-04-02T02:06:20.120Z,1.30
2023-04-02T02:11:27.530Z,1.20
2023-04-02T02:16:32.035Z,0.93
2023-04-02T02:21:46.389Z,1.33
2023-04-02T02:27:07.831Z,1.73
2023-04-02T02:32:15.713Z,1.00
2023-04-02T02:37:29.105Z,1.10
2023-04-02T02:42:40.036Z,1.30
2023-04-02T02:47:46.056Z,1.40
2023-04-02T02:52:55.124Z,1.27
2023-04-02T02:58:28.282Z,1.30
2023-04-02T03:03:41.510Z,1.23
2023-04-02T03:08:52.846Z,1.30
2023-04-02T03:14:23.176Z,1.07
2023-04-02T03:19:59.473Z,1.30
2023-04-02T03:25:16.988Z,1.00
2023-04-02T03:30:45.677Z,1.10
2023-04-02T03:36:03.688Z,1.30
2023-04-02T03:41:36.414Z,1.20
2023-04-02T03:46:44.785Z,1.10
2023-04-02T03:52:04.898Z,0.90
2023-04-02T03:57:33.723Z,0.90
2023-04-02T04:02:53.604Z,1.13
2023-04-02T04:08:34.728Z,1.10
2023-04-02T04:14:09.771Z,1.00
2023-04-02T04:19:39.383Z,1.10
2023-04-02T04:24:46.018Z,1.17
2023-04-02T04:30:03.373Z,1.37
2023-04-02T04:35:29.906Z,1.80
2023-04-02T04:40:37.562Z,1.00
2023-04-02T04:46:44.747Z,1.13
2023-04-02T04:52:06.227Z,1.30
2023-04-02T04:57:36.723Z,1.10
2023-04-02T05:03:03.947Z,0.90
2023-04-02T05:08:35.583Z,1.10
2023-04-02T05:13:55.082Z,1.10
2023-04-02T05:19:45.827Z,1.10
2023-04-02T05:25:14.372Z,0.90
2023-04-02T05:30:56.607Z,1.13
2023-04-02T05:36:12.061Z,1.07
2023-04-02T05:41:37.006Z,1.40
2023-04-02T05:46:58.768Z,1.03
2023-04-02T05:52:05.072Z,1.10
2023-04-02T05:57:17.652Z,1.60
2023-04-02T06:02:41.616Z,1.07
2023-04-02T06:07:56.336Z,1.07
2023-04-02T06:13:10.982Z,1.00
2023-04-02T06:18:20.515Z,1.23
2023-04-02T06:23:57.067Z,0.90
2023-04-02T06:29:15.706Z,0.90
2023-04-02T06:34:21.838Z,0.90
2023-04-02T06:39:29.823Z,1.00
2023-04-02T06:44:36.832Z,0.90
2023-04-02T06:50:27.051Z,1.00
2023-04-02T06:55:47.366Z,1.00
2023-04-02T07:00:53.370Z,1.07
2023-04-02T07:06:06.967Z,0.73
2023-04-02T07:11:18.740Z,0.90
2023-04-02T07:16:26.629Z,0.90
2023-04-02T07:21:29.947Z,1.00
2023-04-02T07:26:33.050Z,1.10
2023-04-02T07:31:35.490Z,0.80
2023-04-02T07:36:37.823Z,0.60
2023-04-02T07:41:58.643Z,0.80
2023-04-02T07:47:01.257Z,0.80
2023-04-02T07:52:04.253Z,1.00
2023-04-02T07:57:06.395Z,0.90
2023-04-02T08:02:21.525Z,0.70
2023-04-02T08:07:23.934Z,1.03
2023-04-02T08:12:26.469Z,0.70
2023-04-02T08:17:31.491Z,0.70
2023-04-02T08:22:34.209Z,0.60
2023-04-02T08:27:36.464Z,0.80
2023-04-02T08:32:41.317Z,0.67
2023-04-02T08:37:44.047Z,0.70
2023-04-02T08:43:18.606Z,0.87
2023-04-02T08:48:21.524Z,0.70
2023-04-02T08:53:31.414Z,1.00
2023-04-02T08:58:42.502Z,0.70
2023-04-02T09:03:50.700Z,0.70
2023-04-02T09:08:54.490Z,0.80
2023-04-02T09:19:32.192Z,0.63
2023-04-02T09:24:35.915Z,0.80
2023-04-02T09:29:45.970Z,0.70
2023-04-02T09:34:48.221Z,0.67
2023-04-02T09:39:50.576Z,1.00
2023-04-02T09:44:52.908Z,0.63
2023-04-02T09:49:55.611Z,0.60
2023-04-02T09:55:16.300Z,0.60
2023-04-02T10:00:31.446Z,0.60
2023-04-02T10:05:44.530Z,0.80
2023-04-02T10:10:55.511Z,0.60
2023-04-02T10:16:38.398Z,0.50
2023-04-02T10:21:43.248Z,0.77
2023-04-02T10:27:27.894Z,0.63
2023-04-02T10:32:57.959Z,0.50
2023-04-02T10:38:34.902Z,0.67
2023-04-02T10:44:12.753Z,0.70
2023-04-02T10:49:58.929Z,0.43
2023-04-02T10:55:13.627Z,0.60
2023-04-02T11:00:29.129Z,0.50
2023-04-02T11:05:58.498Z,0.50
2023-04-02T11:11:15.895Z,0.40
2023-04-02T11:16:18.704Z,0.50
2023-04-02T11:21:51.103Z,0.40
2023-04-02T11:27:12.216Z,0.40
2023-04-02T11:32:26.972Z,0.40
2023-04-02T11:37:44.963Z,0.40
2023-04-02T11:42:50.591Z,0.50
2023-04-02T11:48:02.294Z,0.50
2023-04-02T11:53:21.966Z,0.60
2023-04-02T11:59:21.588Z,0.40
2023-04-02T12:05:14.538Z,0.60
2023-04-02T12:10:22.766Z,0.50
2023-04-02T12:15:46.996Z,0.50
2023-04-02T12:20:56.057Z,0.47
2023-04-02T12:26:30.346Z,0.40
2023-04-02T12:31:33.733Z,0.33
2023-04-02T12:36:36.097Z,0.50
2023-04-02T12:41:38.527Z,0.40
2023-04-02T12:46:41.169Z,0.40
2023-04-02T12:51:43.571Z,0.40
2023-04-02T12:56:46.495Z,0.40
2023-04-02T13:02:14.779Z,0.37
2023-04-02T13:07:25.292Z,0.53
2023-04-02T13:12:38.673Z,0.40
2023-04-02T13:18:02.269Z,0.40
2023-04-02T13:23:27.134Z,0.40
2023-04-02T13:28:29.703Z,0.40
2023-04-02T13:33:32.002Z,0.50
2023-04-02T13:38:34.162Z,0.43
2023-04-02T13:43:36.977Z,0.40
2023-04-02T13:48:39.788Z,0.50
2023-04-02T13:53:42.262Z,0.40
2023-04-02T13:58:46.626Z,0.40
2023-04-02T14:03:49.054Z,0.30
2023-04-02T14:09:12.370Z,0.30
2023-04-02T14:14:45.556Z,0.30
2023-04-02T14:20:02.292Z,0.50
2023-04-02T14:25:23.561Z,0.30
2023-04-02T14:31:07.211Z,0.60
2023-04-02T14:36:36.594Z,0.50
2023-04-02T14:42:16.693Z,0.50
2023-04-02T14:47:29.984Z,0.40
2023-04-02T14:52:35.829Z,0.40
2023-04-02T14:57:52.577Z,0.50
2023-04-02T15:03:15.703Z,0.70
2023-04-02T15:09:08.786Z,0.60
2023-04-02T15:14:47.840Z,0.53
2023-04-02T15:19:56.546Z,0.40
2023-04-02T15:25:48.245Z,0.70
2023-04-02T15:30:57.423Z,0.80
2023-04-02T15:36:33.242Z,1.00
2023-04-02T15:41:42.803Z,0.47
2023-04-02T15:47:28.833Z,0.50
2023-04-02T15:53:01.277Z,0.63
2023-04-02T15:58:35.603Z,0.70
2023-04-02T16:04:20.626Z,0.40
2023-04-02T16:09:47.444Z,0.63
2023-04-02T16:14:50.440Z,0.43
2023-04-02T16:20:02.069Z,0.60
2023-04-02T16:25:16.583Z,0.73
2023-04-02T16:30:30.588Z,0.70
2023-04-02T16:36:24.177Z,0.70
2023-04-02T16:41:47.893Z,1.00
2023-04-02T16:47:17.809Z,1.07
2023-04-02T16:52:26.103Z,0.80
2023-04-02T16:57:40.454Z,1.10
2023-04-02T17:03:04.446Z,1.03
2023-04-02T17:08:24.584Z,1.43
2023-04-02T17:13:56.714Z,1.50
2023-04-02T17:18:59.143Z,1.33
2023-04-02T17:24:26.581Z,1.30
2023-04-02T17:29:39.548Z,1.40
2023-04-02T17:34:41.838Z,0.80
2023-04-02T17:40:09.263Z,0.60
2023-04-02T17:45:33.443Z,0.60
2023-04-02T17:50:54.286Z,0.67
2023-04-02T17:56:17.471Z,0.70
2023-04-02T18:01:35.817Z,1.50
2023-04-02T18:07:08.896Z,1.40
2023-04-02T18:12:22.209Z,1.57
2023-04-02T18:17:53.344Z,1.53
2023-04-02T18:23:12.173Z,1.10
2023-04-02T18:28:57.410Z,2.20
2023-04-02T18:34:24.469Z,5.30
2023-04-02T18:40:08.293Z,2.23
2023-04-02T18:45:44.882Z,6.03
2023-04-02T18:50:47.378Z,7.67
2023-04-02T18:56:01.734Z,4.87
2023-04-02T19:01:08.338Z,2.60
2023-04-02T19:06:19.462Z,2.50
2023-04-02T19:11:31.607Z,7.20
2023-04-02T19:17:16.951Z,12.87
2023-04-02T19:22:50.667Z,10.93
2023-04-02T19:28:44.896Z,12.90
2023-04-02T19:34:03.833Z,11.07
2023-04-02T19:39:31.452Z,9.00
2023-04-02T19:44:33.858Z,8.67
2023-04-02T19:49:36.389Z,7.70
2023-04-02T19:54:38.810Z,6.40
2023-04-02T19:59:41.123Z,10.00
2023-04-02T20:04:43.244Z,7.87
2023-04-02T20:09:45.314Z,7.57
2023-04-02T20:14:47.435Z,7.70
2023-04-02T20:19:49.534Z,8.97
2023-04-02T20:24:51.767Z,8.30
2023-04-02T20:29:53.891Z,8.40
2023-04-02T20:34:56.220Z,8.10
2023-04-02T20:39:58.731Z,10.30
2023-04-02T20:45:00.815Z,10.33
2023-04-02T20:50:03.296Z,11.23
2023-04-02T20:55:06.470Z,10.17
2023-04-02T21:00:10.282Z,10.00
2023-04-02T21:05:12.490Z,9.67
2023-04-02T21:10:14.725Z,9.00
2023-04-02T21:15:17.217Z,10.10
2023-04-02T21:20:19.529Z,9.90
2023-04-02T21:25:21.695Z,9.30
2023-04-02T21:30:24.092Z,10.17
2023-04-02T21:35:26.244Z,12.37
2023-04-02T21:40:28.420Z,11.90
2023-04-02T21:45:30.890Z,14.40
2023-04-02T21:50:33.221Z,14.10
2023-04-02T21:55:35.528Z,13.10
2023-04-02T22:00:37.936Z,12.73
2023-04-02T22:05:40.692Z,13.30
2023-04-02T22:10:43.022Z,13.20
2023-04-02T22:15:45.318Z,11.13
2023-04-02T22:20:47.639Z,11.90
2023-04-02T22:25:50.130Z,12.07
2023-04-02T22:30:52.837Z,12.50
2023-04-02T22:35:55.225Z,11.70
2023-04-02T22:41:23.200Z,12.37
2023-04-02T22:46:27.243Z,10.17
2023-04-02T22:51:30.567Z,9.20
2023-04-02T22:56:33.302Z,9.80
2023-04-02T23:01:37.025Z,7.63
2023-04-02T23:06:39.490Z,8.17
2023-04-02T23:11:41.758Z,8.60
2023-04-02T23:16:43.966Z,6.97
2023-04-02T23:21:46.039Z,7.63
2023-04-02T23:26:48.325Z,6.40
2023-04-02T23:31:51.057Z,5.37
2023-04-02T23:36:53.513Z,6.20
2023-04-02T23:41:55.949Z,5.20
2023-04-02T23:46:59.066Z,5.37
2023-04-02T23:52:01.407Z,5.20
2023-04-02T23:57:03.615Z,5.70
